Time;durP1;ratioP1;P1;durP2;ratioP2;P2;SDS_P1;SDS_P2;PMS_P1;PMS_P2;Temp;Humidity;BMP_temperature;BMP_pressure;BME280_temperature;BME280_humidity;BME280_pressure;Samples;Min_cycle;Max_cycle;Signal;HPM_P1;HPM_P2
2022/07/27 00:02:20;;;;;;;1.70;0.70;;;22.50;99.90;;;23.04;51.42;101457.44;4923426;28;103868;-46
2022/07/27 00:04:45;;;;;;;1.03;0.80;;;22.60;98.40;;;23.02;52.21;101462.09;4927600;28;97005;-47
2022/07/27 00:07:11;;;;;;;2.47;1.07;;;22.50;99.90;;;23.02;50.54;101459.41;4935258;28;97228;-45
2022/07/27 00:09:37;;;;;;;2.30;0.80;;;22.50;97.00;;;23.05;52.52;101456.47;4924260;28;97711;-48
2022/07/27 00:12:03;;;;;;;1.77;1.17;;;22.60;99.90;;;23.05;47.57;101456.47;4924208;28;109153;-45
2022/07/27 00:14:29;;;;;;;3.47;1.20;;;22.60;98.30;;;23.03;49.51;101453.06;4928039;28;97481;-45
2022/07/27 00:16:55;;;;;;;3.23;1.40;;;22.50;96.90;;;22.95;50.52;101455.44;4927432;28;98576;-46
2022/07/27 00:19:22;;;;;;;1.80;0.87;;;22.40;98.30;;;22.91;51.40;101460.19;4931900;28;97325;-48
2022/07/27 00:21:49;;;;;;;4.30;1.50;;;22.30;97.80;;;22.89;50.54;101466.69;4934813;28;97695;-46
2022/07/27 00:24:14;;;;;;;1.80;0.90;;;22.30;96.60;;;22.89;50.35;101464.84;4938369;28;97082;-45
2022/07/27 00:26:40;;;;;;;3.77;0.97;;;22.30;96.90;;;22.88;52.46;101470.34;4924105;28;96912;-46
2022/07/27 00:29:06;;;;;;;5.07;1.57;;;22.30;99.90;;;22.80;45.99;101469.03;4933214;28;96881;-45
2022/07/27 00:31:32;;;;;;;3.13;0.90;;;22.20;96.20;;;22.79;49.64;101466.47;4931262;28;107925;-45
2022/07/27 00:33:58;;;;;;;5.30;1.70;;;22.20;97.60;;;22.74;46.72;101458.75;4938252;28;96892;-49
2022/07/27 00:36:24;;;;;;;2.53;0.93;;;22.10;96.20;;;22.74;52.01;101461.44;4927770;28;96988;-48
2022/07/27 00:38:49;;;;;;;3.93;1.57;;;22.20;98.70;;;22.68;47.66;101461.88;4944630;28;96651;-45
2022/07/27 00:41:15;;;;;;;4.57;2.30;;;22.10;96.40;;;22.69;51.24;101455.50;4929326;28;102810;-47
2022/07/27 00:43:59;;;;;;;3.03;1.30;;;22.10;98.10;;;22.73;50.12;101459.72;4936971;28;106870;-48
2022/07/27 00:46:27;;;;;;;2.23;1.20;;;22.20;97.70;;;22.70;50.51;101457.22;4930997;28;96582;-53
2022/07/27 00:48:53;;;;;;;1.67;0.90;;;22.10;97.40;;;22.72;51.55;101462.53;4931381;28;98132;-44
2022/07/27 00:51:20;;;;;;;4.17;1.30;;;22.20;99.40;;;22.72;48.82;101460.69;4931091;28;96677;-50
2022/07/27 00:53:48;;;;;;;4.20;1.37;;;22.10;97.40;;;22.71;47.72;101461.66;4936872;28;97069;-44
2022/07/27 00:56:15;;;;;;;2.00;0.70;;;22.20;96.80;;;22.71;52.97;101464.34;4930044;28;97656;-49
2022/07/27 00:58:44;;;;;;;2.83;1.20;;;22.10;99.90;;;22.68;52.30;101459.19;4925034;28;97629;-49
2022/07/27 01:01:10;;;;;;;5.30;1.40;;;22.10;99.90;;;22.64;51.90;101463.06;4928374;28;97698;-46
2022/07/27 01:03:35;;;;;;;5.20;1.27;;;22.00;99.10;;;22.64;48.82;101462.22;4925968;28;96696;-48
2022/07/27 01:06:01;;;;;;;1.17;0.80;;;22.00;97.40;;;22.60;53.27;101461.59;4936142;28;97097;-47
2022/07/27 01:08:27;;;;;;;1.47;0.93;;;22.00;99.90;;;22.59;53.37;101457.19;4919530;28;97280;-49
2022/07/27 01:10:56;;;;;;;5.33;1.20;;;22.00;99.90;;;22.59;52.56;101462.56;4927694;28;96888;-48
2022/07/27 01:13:24;;;;;;;1.63;0.90;;;22.00;99.90;;;22.58;51.87;101457.31;4926833;28;98225;-50
2022/07/27 01:15:52;;;;;;;1.53;0.90;;;22.00;98.40;;;22.56;52.69;101454.69;4925770;28;98576;-44
2022/07/27 01:18:34;;;;;;;2.30;1.20;;;21.90;99.00;;;22.53;48.94;101460.31;4929408;28;97158;-46
2022/07/27 01:21:03;;;;;;;3.90;1.17;;;21.90;98.50;;;22.44;45.62;101461.00;4917701;28;100332;-47
2022/07/27 01:23:33;;;;;;;3.53;1.00;;;21.80;97.90;;;22.46;52.63;101459.06;4919635;28;97033;-47
2022/07/27 01:26:01;;;;;;;4.63;1.57;;;21.80;98.90;;;22.46;46.17;101469.81;4923733;28;97248;-46
2022/07/27 01:28:27;;;;;;;5.10;1.20;;;21.80;97.50;;;22.47;52.14;101466.16;4919471;28;97230;-47
2022/07/27 01:30:54;;;;;;;3.93;1.30;;;21.80;98.40;;;22.50;49.04;101465.91;4924741;28;97839;-52
2022/07/27 01:33:27;;;;;;;1.20;0.80;;;21.90;98.20;;;22.54;53.41;101467.41;4933904;28;96906;-47
2022/07/27 01:35:56;;;;;;;0.73;0.50;;;21.90;99.90;;;22.56;54.35;101460.06;4927430;28;97159;-46
2022/07/27 01:38:22;;;;;;;2.37;1.17;;;22.00;99.90;;;22.58;52.06;101451.94;4917253;28;99020;-48
2022/07/27 01:40:49;;;;;;;2.70;0.97;;;22.00;98.50;;;22.59;53.36;101443.75;4923477;28;97530;-49
2022/07/27 01:43:15;;;;;;;2.03;0.60;;;22.00;99.90;;;22.59;53.34;101451.81;4929167;28;97424;-49
2022/07/27 01:45:41;;;;;;;2.43;1.00;;;22.00;99.90;;;22.60;53.39;101445.47;4930005;28;96959;-49
2022/07/27 01:48:08;;;;;;;2.67;0.70;;;22.00;99.80;;;22.63;54.06;101447.91;4928708;28;97534;-46
2022/07/27 01:50:34;;;;;;;2.20;0.80;;;22.00;99.90;;;22.62;53.21;101443.50;4922317;28;97637;-47
2022/07/27 01:53:00;;;;;;;3.23;1.00;;;22.00;99.90;;;22.63;51.81;101445.22;4919496;28;96924;-49
2022/07/27 01:55:26;;;;;;;4.93;1.83;;;22.10;98.40;;;22.61;50.51;101455.25;4932327;28;96713;-45
2022/07/27 01:57:51;;;;;;;3.00;1.10;;;22.00;97.50;;;22.56;51.23;101452.88;4934997;28;106210;-48
2022/07/27 02:00:17;;;;;;;2.87;1.17;;;21.90;98.40;;;22.55;52.06;101452.97;4926227;28;97356;-47
2022/07/27 02:02:43;;;;;;;1.10;0.60;;;21.90;98.50;;;22.56;54.20;101450.19;4922573;28;102707;-49
2022/07/27 02:05:12;;;;;;;1.57;0.93;;;21.90;99.90;;;22.54;53.63;101456.66;4927797;28;97088;-46
2022/07/27 02:07:41;;;;;;;1.03;0.60;;;21.90;99.90;;;22.57;53.38;101456.44;4922648;28;101852;-45
2022/07/27 02:10:09;;;;;;;0.87;0.60;;;21.90;99.90;;;22.59;54.20;101454.50;4917675;28;97471;-49
2022/07/27 02:12:35;;;;;;;3.47;0.90;;;22.00;99.90;;;22.61;53.26;101457.94;4922735;28;97366;-49
2022/07/27 02:15:13;;;;;;;1.90;0.60;;;22.10;99.80;;;22.63;53.93;101460.50;4935648;28;97514;-46
2022/07/27 02:17:39;;;;;;;2.70;0.70;;;22.00;99.90;;;22.60;48.65;101453.53;4929484;28;99579;-49
2022/07/27 02:20:07;;;;;;;1.63;0.80;;;22.00;98.40;;;22.64;50.45;101452.31;4926557;28;97395;-50
2022/07/27 02:22:33;;;;;;;3.03;1.30;;;22.00;99.90;;;22.65;52.87;101448.66;4931722;28;96990;-49
2022/07/27 02:24:59;;;;;;;1.03;0.67;;;22.10;99.50;;;22.67;53.34;101443.16;4930224;28;97427;-51
2022/07/27 02:27:25;;;;;;;2.40;0.70;;;22.10;99.90;;;22.65;53.21;101445.97;4931341;28;97424;-48
2022/07/27 02:29:52;;;;;;;0.70;0.63;;;22.10;99.90;;;22.62;53.13;101448.88;4936573;28;97454;-46
2022/07/27 02:32:19;;;;;;;1.07;0.60;;;22.00;99.90;;;22.60;53.76;101453.53;4939939;28;97487;-46
2022/07/27 02:34:45;;;;;;;2.87;0.97;;;21.90;99.90;;;22.59;53.75;101445.56;4929027;28;97291;-50
2022/07/27 02:37:11;;;;;;;1.00;0.70;;;21.90;99.90;;;22.55;54.03;101450.28;4931890;28;97098;-46
2022/07/27 02:39:37;;;;;;;2.30;1.07;;;21.90;99.90;;;22.54;53.19;101451.25;4936056;28;97728;-48
2022/07/27 02:42:04;;;;;;;0.90;0.70;;;21.90;99.90;;;22.55;53.72;101461.03;4930778;28;98219;-46
2022/07/27 02:44:30;;;;;;;1.83;0.70;;;21.90;99.90;;;22.58;54.07;101457.31;4926079;28;97119;-50
2022/07/27 02:46:56;;;;;;;1.70;0.73;;;21.90;99.90;;;22.58;52.66;101458.16;4936644;28;97029;-50
2022/07/27 02:49:22;;;;;;;3.13;1.40;;;22.00;99.90;;;22.57;53.35;101456.44;4920093;28;97327;-46
2022/07/27 02:51:52;;;;;;;2.07;0.70;;;22.00;99.80;;;22.55;54.14;101461.03;4929617;28;97805;-44
2022/07/27 02:54:20;;;;;;;3.33;1.40;;;21.90;99.90;;;22.50;53.08;101463.22;4940057;28;96919;-45
2022/07/27 02:56:47;;;;;;;1.37;0.83;;;21.80;99.90;;;22.50;54.09;101460.53;4930671;28;97042;-46
2022/07/27 02:59:13;;;;;;;2.40;1.10;;;21.80;99.90;;;22.49;51.57;101464.19;4945447;28;97692;-44
2022/07/27 03:01:39;;;;;;;2.17;0.97;;;21.80;99.60;;;22.44;53.08;101466.38;4937531;28;97198;-44
2022/07/27 03:04:05;;;;;;;0.97;0.50;;;21.70;99.40;;;22.39;54.04;101473.88;4945655;28;97264;-45
2022/07/27 03:06:31;;;;;;;3.80;1.10;;;21.70;99.90;;;22.38;53.51;101472.19;4927067;28;96920;-44
2022/07/27 03:08:57;;;;;;;2.80;1.43;;;21.60;99.90;;;22.37;51.71;101475.84;4939422;28;99796;-44
2022/07/27 03:11:22;;;;;;;2.13;1.10;;;21.60;99.40;;;22.32;53.90;101478.00;4942655;28;97566;-45
2022/07/27 03:13:48;;;;;;;2.53;1.50;;;21.60;99.90;;;22.31;53.12;101470.91;4932710;28;96667;-44
2022/07/27 03:16:14;;;;;;;5.20;1.70;;;21.60;99.90;;;22.27;51.04;101464.88;4926999;28;97040;-48
2022/07/27 03:18:40;;;;;;;4.53;1.80;;;21.50;98.90;;;22.21;52.94;101466.19;4922856;28;97396;-46
2022/07/27 03:21:06;;;;;;;3.40;1.00;;;21.40;99.00;;;22.18;54.63;101466.41;4934815;28;114479;-48
2022/07/27 03:23:32;;;;;;;2.70;1.00;;;21.40;99.90;;;22.16;54.76;101473.72;4933800;28;97008;-45
2022/07/27 03:25:58;;;;;;;1.47;0.83;;;21.30;99.90;;;22.17;54.52;101480.81;4926407;28;98803;-47
2022/07/27 03:28:24;;;;;;;4.67;1.70;;;21.30;99.90;;;22.12;49.31;101472.22;4926534;28;97399;-50
2022/07/27 03:30:50;;;;;;;1.90;1.17;;;21.30;99.20;;;22.10;53.92;101479.53;4931054;28;97491;-44
2022/07/27 03:33:16;;;;;;;3.03;1.63;;;21.30;99.90;;;22.04;52.70;101485.31;4927346;28;96983;-45
2022/07/27 03:35:42;;;;;;;0.80;0.70;;;21.20;99.20;;;22.02;55.64;101470.28;4925264;28;97266;-44
2022/07/27 03:38:08;;;;;;;2.03;1.17;;;21.20;99.90;;;22.00;55.04;101464.16;4928480;28;97603;-46
2022/07/27 03:40:33;;;;;;;2.97;1.40;;;21.10;99.90;;;21.95;54.46;101469.84;4934301;28;97455;-48
2022/07/27 03:42:59;;;;;;;5.43;1.50;;;21.10;99.90;;;21.91;54.74;101473.72;4930901;28;97172;-46
2022/07/27 03:45:26;;;;;;;2.00;0.97;;;21.00;99.90;;;21.88;54.86;101484.69;4922987;28;99206;-48
2022/07/27 03:47:52;;;;;;;3.43;1.23;;;21.00;99.90;;;21.87;54.18;101480.28;4920377;28;97651;-46
2022/07/27 03:50:18;;;;;;;2.23;1.40;;;21.00;99.90;;;21.87;54.75;101480.28;4934277;28;97255;-44
2022/07/27 03:52:44;;;;;;;4.97;1.83;;;21.00;99.90;;;21.90;54.85;101482.75;4929549;28;96620;-49
2022/07/27 03:55:10;;;;;;;2.07;1.00;;;21.10;99.90;;;21.94;55.89;101478.88;4929674;28;97196;-47
2022/07/27 03:57:36;;;;;;;1.87;0.90;;;21.10;99.90;;;21.93;55.50;101477.16;4924266;28;98181;-46
2022/07/27 04:00:03;;;;;;;4.57;1.20;;;21.20;99.90;;;21.91;55.12;101484.47;4932145;28;99194;-45
2022/07/27 04:02:29;;;;;;;1.60;1.40;;;21.10;99.90;;;21.89;54.01;101486.41;4917798;28;97971;-44
2022/07/27 04:04:55;;;;;;;1.10;0.77;;;21.00;99.90;;;21.88;55.97;101485.53;4928227;28;97296;-47
2022/07/27 04:07:20;;;;;;;0.80;0.60;;;21.00;99.90;;;21.94;55.79;101484.22;4927116;28;97646;-49
2022/07/27 04:09:46;;;;;;;2.23;1.00;;;21.10;99.90;;;21.96;55.71;101488.53;4936324;28;97544;-46
2022/07/27 04:12:12;;;;;;;1.07;0.70;;;21.20;99.90;;;22.00;55.93;101494.56;4934284;28;96934;-45
2022/07/27 04:14:38;;;;;;;3.03;1.53;;;21.30;99.90;;;22.01;54.29;101496.28;4931306;28;96918;-47
2022/07/27 04:17:03;;;;;;;2.10;0.80;;;21.30;99.90;;;22.02;55.88;101492.63;4931816;28;105304;-46
2022/07/27 04:19:29;;;;;;;1.33;0.93;;;21.30;99.90;;;22.07;55.21;101489.63;4936132;28;97180;-46
2022/07/27 04:21:56;;;;;;;3.27;1.50;;;21.30;99.90;;;22.11;55.32;101491.13;4925730;28;96874;-48
2022/07/27 04:24:22;;;;;;;3.40;1.40;;;21.40;99.90;;;22.11;55.25;101497.38;4930002;28;96834;-47
2022/07/27 04:26:48;;;;;;;1.40;0.70;;;21.40;99.90;;;22.14;55.24;101491.78;4930160;28;97500;-47
2022/07/27 04:29:14;;;;;;;1.07;0.63;;;21.40;99.90;;;22.18;54.88;101497.81;4934658;28;97487;-47
2022/07/27 04:31:40;;;;;;;1.33;0.60;;;21.50;99.90;;;22.18;55.07;101490.59;4931010;28;98098;-51
2022/07/27 04:34:06;;;;;;;2.60;1.20;;;21.40;99.90;;;22.19;55.30;101489.63;4915461;28;96903;-50
2022/07/27 04:36:31;;;;;;;1.40;0.80;;;21.50;99.90;;;22.20;54.80;101491.34;4901782;28;97299;-50
2022/07/27 04:38:57;;;;;;;2.90;0.77;;;21.40;99.90;;;22.17;55.20;101491.56;4905337;28;102410;-46
2022/07/27 04:41:23;;;;;;;1.13;0.60;;;21.40;99.90;;;22.22;55.25;101478.66;4905697;28;97612;-52
2022/07/27 04:43:49;;;;;;;1.23;0.90;;;21.50;99.90;;;22.27;54.86;101487.22;4908919;28;98656;-45
2022/07/27 04:46:15;;;;;;;1.93;1.37;;;21.50;99.90;;;22.29;54.17;101500.59;4910166;28;100500;-50
2022/07/27 04:48:40;;;;;;;2.47;0.87;;;21.50;99.90;;;22.28;53.91;101504.25;4906653;28;96928;-47
2022/07/27 04:51:06;;;;;;;3.20;1.50;;;21.50;99.90;;;22.21;53.23;101501.13;4911334;28;98814;-50
2022/07/27 04:53:33;;;;;;;2.70;1.30;;;21.40;99.90;;;22.12;54.10;101509.81;4909205;28;97083;-50
2022/07/27 04:55:59;;;;;;;3.40;1.93;;;21.20;99.90;;;22.12;55.18;101503.59;4907241;28;99304;-50
2022/07/27 04:58:24;;;;;;;3.53;1.10;;;21.20;99.90;;;22.20;54.54;101506.59;4895821;28;112185;-50
2022/07/27 05:00:51;;;;;;;4.70;1.70;;;21.40;99.90;;;22.22;54.10;101500.16;4904639;28;98271;-50
2022/07/27 05:03:17;;;;;;;5.07;2.10;;;21.50;99.90;;;21.92;51.30;101515.72;4904081;28;97203;-46
2022/07/27 05:05:43;;;;;;;2.50;1.10;;;21.00;99.90;;;21.97;55.28;101510.88;4901037;28;100175;-48
2022/07/27 05:08:09;;;;;;;5.10;1.77;;;21.10;99.90;;;21.93;52.79;101520.13;4905994;28;99664;-48
2022/07/27 05:10:35;;;;;;;7.53;2.20;;;21.00;99.90;;;21.96;51.96;101519.91;4903413;28;97869;-50
2022/07/27 05:13:01;;;;;;;1.80;0.90;;;21.20;99.90;;;21.91;55.07;101522.06;4906384;28;97474;-51
2022/07/27 05:15:28;;;;;;;2.60;1.20;;;21.10;99.90;;;21.98;53.63;101526.03;4904982;28;101527;-49
2022/07/27 05:17:53;;;;;;;4.53;2.03;;;21.20;99.90;;;21.94;53.64;101521.84;4903108;28;97137;-49
2022/07/27 05:20:19;;;;;;;5.50;1.33;;;21.20;99.90;;;21.95;54.64;101523.56;4905204;28;100099;-53
2022/07/27 05:22:45;;;;;;;5.67;1.90;;;21.10;99.90;;;21.90;48.82;101525.72;4906900;28;97412;-47
2022/07/27 05:25:11;;;;;;;0.93;0.90;;;21.10;99.90;;;21.89;55.54;101526.69;4906804;28;103838;-51
2022/07/27 05:27:37;;;;;;;5.87;2.10;;;21.10;99.90;;;21.75;52.06;101527.63;4901744;28;97014;-47
2022/07/27 05:30:06;;;;;;;4.97;1.70;;;20.90;99.90;;;21.77;52.05;101527.53;4904104;28;98905;-50
2022/07/27 05:32:32;;;;;;;1.43;0.70;;;20.90;99.90;;;21.78;55.78;101527.41;4903591;28;97263;-48
2022/07/27 05:34:58;;;;;;;2.67;1.50;;;21.00;99.90;;;21.71;55.63;101525.28;4904070;28;100532;-49
2022/07/27 05:37:24;;;;;;;7.37;2.20;;;20.90;99.90;;;21.61;48.04;101531.25;4905293;28;99335;-46
2022/07/27 05:39:50;;;;;;;6.00;2.20;;;20.80;99.90;;;21.65;53.99;101538.13;4907442;28;104999;-47
2022/07/27 05:42:15;;;;;;;3.87;1.87;;;20.90;99.90;;;21.65;54.20;101543.50;4906591;28;97146;-48
2022/07/27 05:44:41;;;;;;;5.37;2.57;;;20.90;99.90;;;21.69;52.69;101544.16;4905084;28;100642;-50
2022/07/27 05:47:07;;;;;;;2.20;1.53;;;21.00;99.90;;;21.69;54.76;101547.69;4906827;28;97228;-48
2022/07/27 05:49:33;;;;;;;2.47;1.60;;;21.00;99.90;;;21.78;55.40;101542.66;4907123;28;98612;-47
2022/07/27 05:51:59;;;;;;;2.23;1.20;;;21.10;99.90;;;21.88;55.83;101546.44;4905095;28;97996;-47
2022/07/27 05:54:25;;;;;;;3.00;1.70;;;21.20;99.90;;;21.91;55.16;101554.28;4902239;28;101147;-53
2022/07/27 05:56:51;;;;;;;6.87;2.43;;;21.20;99.90;;;21.86;51.95;101551.94;4906248;28;104360;-48
2022/07/27 05:59:17;;;;;;;1.97;1.33;;;21.20;99.90;;;21.92;55.63;101556.88;4908610;28;99698;-50
2022/07/27 06:01:43;;;;;;;1.10;0.70;;;21.20;99.90;;;22.04;55.55;101555.16;4914989;28;99209;-45
2022/07/27 06:04:09;;;;;;;2.30;1.00;;;21.40;99.90;;;22.10;55.24;101564.63;4935604;28;97288;-48
2022/07/27 06:09:19;;;;;;;4.33;1.90;;;21.70;99.90;;;22.09;51.47;101561.09;4924169;28;96999;-55
2022/07/27 06:11:45;;;;;;;3.43;1.13;;;21.50;99.90;;;22.06;51.61;101553.25;4914790;28;97642;-48
2022/07/27 06:14:11;;;;;;;2.50;1.43;;;21.40;99.90;;;22.08;53.71;101567.44;4927176;28;97388;-50
2022/07/27 06:16:37;;;;;;;3.93;2.30;;;21.50;99.90;;;22.12;47.26;101568.94;4918793;28;97474;-47
2022/07/27 06:19:03;;;;;;;3.80;1.63;;;21.60;99.90;;;22.14;53.70;101566.16;4925785;28;96830;-48
2022/07/27 06:21:30;;;;;;;6.27;2.47;;;21.50;99.90;;;22.17;50.69;101579.38;4920739;28;97271;-45
2022/07/27 06:23:56;;;;;;;5.50;2.00;;;21.60;99.90;;;22.23;48.92;101577.09;4933605;28;96992;-44
2022/07/27 06:26:22;;;;;;;6.27;2.20;;;21.70;99.90;;;22.27;49.31;101569.69;4916113;28;99821;-46
2022/07/27 06:28:48;;;;;;;5.87;1.90;;;21.80;99.90;;;22.22;46.55;101570.03;4934930;28;96859;-48
2022/07/27 06:31:14;;;;;;;4.17;2.17;;;21.70;98.60;;;22.19;46.39;101569.38;4928191;28;97364;-46
2022/07/27 06:33:40;;;;;;;5.80;2.20;;;21.60;98.90;;;22.00;51.05;101569.78;4919763;28;97422;-47
2022/07/27 06:36:09;;;;;;;3.50;1.07;;;21.40;99.90;;;22.00;54.49;101564.41;4926143;28;97610;-47
2022/07/27 06:38:35;;;;;;;1.17;0.90;;;21.30;99.90;;;22.13;54.46;101570.69;4927349;28;98498;-46
2022/07/27 06:41:01;;;;;;;1.50;1.20;;;21.60;99.90;;;22.26;54.50;101571.50;4936389;28;96931;-49
2022/07/27 06:43:30;;;;;;;2.67;1.20;;;21.80;99.90;;;22.21;49.91;101570.13;4920473;28;99267;-47
2022/07/27 06:45:57;;;;;;;2.30;1.70;;;21.70;99.90;;;22.18;51.43;101579.28;4927809;28;96783;-48
2022/07/27 06:48:23;;;;;;;5.40;1.80;;;21.60;99.90;;;22.27;46.80;101575.06;4920210;28;97104;-45
2022/07/27 06:50:51;;;;;;;6.60;1.83;;;21.80;99.80;;;22.20;46.05;101569.28;4931592;28;97188;-46
2022/07/27 06:53:17;;;;;;;5.87;1.90;;;21.80;98.80;;;21.99;45.49;101568.06;4929800;28;97204;-47
2022/07/27 06:55:43;;;;;;;3.27;1.60;;;21.40;98.70;;;21.87;45.26;101568.91;4921123;28;97383;-48
2022/07/27 06:58:09;;;;;;;4.07;2.00;;;21.20;98.30;;;21.87;50.55;101574.28;4919288;28;97502;-48
2022/07/27 07:00:35;;;;;;;6.43;2.10;;;21.20;99.90;;;21.80;48.41;101567.59;4922783;28;97278;-45
2022/07/27 07:03:04;;;;;;;3.87;2.10;;;21.20;99.40;;;21.66;48.04;101572.06;4921576;28;98275;-45
2022/07/27 07:05:33;;;;;;;4.30;2.00;;;21.00;99.30;;;21.52;46.50;101569.44;4921685;28;97561;-47
2022/07/27 07:08:00;;;;;;;4.10;2.10;;;20.90;99.40;;;21.41;46.56;101574.69;4918674;28;97087;-48
2022/07/27 07:10:26;;;;;;;4.03;1.97;;;20.80;99.40;;;21.62;55.31;101573.25;4930437;28;97065;-45
2022/07/27 07:12:56;;;;;;;6.30;2.00;;;21.00;99.90;;;21.68;51.94;101570.13;4927879;28;97578;-47
2022/07/27 07:15:25;;;;;;;5.87;2.10;;;21.20;99.90;;;21.49;45.92;101569.66;4934369;28;97436;-45
2022/07/27 07:17:52;;;;;;;1.57;1.10;;;21.00;98.80;;;21.74;55.41;101568.88;4948141;28;97316;-47
2022/07/27 07:20:18;;;;;;;4.60;1.70;;;21.20;99.90;;;21.88;50.92;101576.00;4934382;28;97306;-48
2022/07/27 07:22:43;;;;;;;3.67;1.30;;;21.50;99.80;;;21.79;45.63;101576.59;4925108;28;114938;-52
2022/07/27 07:25:09;;;;;;;4.93;1.83;;;21.40;98.60;;;21.82;53.31;101571.03;4936905;28;97349;-48
2022/07/27 07:27:35;;;;;;;3.60;1.27;;;21.30;99.90;;;21.95;54.22;101574.59;4919254;28;97577;-50
2022/07/27 07:30:01;;;;;;;9.50;1.57;;;21.40;99.90;;;21.92;45.22;101570.28;4931772;28;97587;-44
2022/07/27 07:32:28;;;;;;;7.20;2.10;;;21.50;98.20;;;21.80;47.44;101572.97;4923370;28;98003;-48
2022/07/27 07:34:55;;;;;;;4.07;1.50;;;21.30;99.30;;;21.95;49.17;101579.97;4936598;28;97652;-51
2022/07/27 07:37:21;;;;;;;1.50;1.00;;;21.50;99.90;;;22.16;54.10;101575.84;4918934;28;97544;-44
2022/07/27 07:39:47;;;;;;;4.03;1.03;;;21.80;99.90;;;22.33;53.23;101576.47;4923711;28;97252;-47
2022/07/27 07:42:13;;;;;;;1.90;1.10;;;22.00;99.90;;;22.50;50.33;101573.44;4928616;28;98086;-49
2022/07/27 07:44:39;;;;;;;1.90;1.10;;;22.30;99.90;;;22.56;52.29;101578.38;4917693;28;97337;-48
2022/07/27 07:47:06;;;;;;;4.37;1.10;;;22.30;99.90;;;22.59;43.91;101567.41;4920672;28;97407;-46
2022/07/27 07:49:32;;;;;;;4.00;1.13;;;22.30;96.10;;;22.55;42.43;101571.28;4918061;28;96835;-48
2022/07/27 07:51:58;;;;;;;4.10;1.20;;;22.20;95.80;;;22.45;50.19;101570.25;4934231;28;97912;-46
2022/07/27 07:54:24;;;;;;;3.20;0.80;;;22.00;98.40;;;22.59;48.04;101563.88;4922279;28;97789;-46
2022/07/27 07:56:49;;;;;;;2.87;1.40;;;22.20;99.50;;;22.58;50.91;101571.09;4930210;28;97160;-49
2022/07/27 07:59:15;;;;;;;3.90;1.10;;;22.20;99.90;;;22.48;45.58;101570.00;4931477;28;97289;-49
2022/07/27 08:01:41;;;;;;;4.37;1.10;;;22.00;95.90;;;22.23;40.47;101566.38;4925305;28;97435;-50
2022/07/27 08:04:08;;;;;;;2.07;0.80;;;21.70;94.20;;;22.44;52.88;101573.91;4935737;28;97242;-47
2022/07/27 08:06:34;;;;;;;1.10;0.80;;;22.00;99.90;;;22.54;52.69;101575.78;4937333;28;97097;-47
2022/07/27 08:08:59;;;;;;;3.17;0.90;;;22.20;99.90;;;22.61;47.48;101576.22;4926158;28;97324;-45
2022/07/27 08:11:26;;;;;;;3.63;1.10;;;22.30;97.30;;;22.41;41.26;101574.09;4931592;28;99245;-46
2022/07/27 08:13:53;;;;;;;5.33;1.43;;;22.00;94.70;;;22.35;43.06;101580.78;4936868;28;99488;-46
2022/07/27 08:16:19;;;;;;;5.43;1.27;;;21.80;94.90;;;22.17;45.22;101580.25;4926885;28;96596;-47
2022/07/27 08:18:45;;;;;;;3.57;0.90;;;21.60;95.30;;;22.21;49.95;101584.44;4932079;28;98451;-44
2022/07/27 08:21:10;;;;;;;1.33;0.63;;;21.60;98.20;;;22.27;46.43;101578.59;4929102;28;97755;-44
2022/07/27 08:23:36;;;;;;;2.63;0.90;;;21.80;95.90;;;22.20;42.84;101582.72;4927027;28;99418;-45
2022/07/27 08:26:02;;;;;;;1.97;0.73;;;21.70;95.30;;;22.24;51.67;101586.88;4929718;28;97246;-45
2022/07/27 08:28:28;;;;;;;1.97;0.80;;;21.70;99.60;;;22.36;51.66;101592.38;4925064;28;97196;-50
2022/07/27 08:30:54;;;;;;;1.57;0.83;;;21.90;99.30;;;22.48;50.58;101592.38;4931105;28;97864;-45
2022/07/27 08:33:20;;;;;;;1.10;0.70;;;22.10;99.90;;;22.55;52.15;101595.47;4926836;28;97219;-48
2022/07/27 08:35:46;;;;;;;4.23;0.93;;;22.20;99.90;;;22.59;48.78;101591.63;4932287;28;99094;-46
2022/07/27 08:38:12;;;;;;;3.87;0.90;;;22.20;98.40;;;22.56;42.01;101595.38;4921533;28;96959;-49
2022/07/27 08:40:39;;;;;;;1.93;0.90;;;22.20;95.00;;;22.49;44.12;101594.09;4922585;28;96813;-49
2022/07/27 08:43:07;;;;;;;1.57;0.80;;;22.00;95.10;;;22.53;49.12;101595.59;4926980;28;97198;-46
2022/07/27 08:45:34;;;;;;;2.40;0.73;;;22.00;96.40;;;22.58;51.68;101597.97;4920401;28;96742;-44
2022/07/27 08:48:00;;;;;;;6.20;1.10;;;22.10;99.90;;;22.54;43.77;101589.25;4921551;28;96867;-47
2022/07/27 08:50:29;;;;;;;2.10;0.70;;;22.10;95.60;;;22.64;51.57;101584.06;4922163;28;98488;-44
2022/07/27 08:53:07;;;;;;;3.30;1.03;;;22.20;99.90;;;22.67;51.59;101591.91;4925213;28;97575;-44
2022/07/27 08:55:42;;;;;;;3.33;0.80;;;22.20;99.90;;;22.78;50.80;101597.38;4922073;28;97121;-45
2022/07/27 08:58:11;;;;;;;1.80;0.83;;;22.40;98.10;;;22.82;50.40;101590.84;4922533;28;97848;-46
2022/07/27 09:00:41;;;;;;;4.10;1.40;;;22.50;98.50;;;22.82;45.96;101590.84;4939659;28;98021;-44
2022/07/27 09:03:11;;;;;;;1.27;0.70;;;22.50;95.30;;;22.81;49.27;101578.34;4921617;28;97015;-47
2022/07/27 09:05:51;;;;;;;1.07;0.70;;;22.40;96.90;;;22.87;42.08;101586.97;4915355;28;96931;-46
2022/07/27 09:08:21;;;;;;;1.13;0.60;;;22.60;96.20;;;22.85;45.71;101582.53;4921296;28;97330;-46
2022/07/27 09:10:47;;;;;;;0.80;0.47;;;22.50;98.10;;;22.93;51.30;101586.53;4920308;28;101139;-46
2022/07/27 09:13:32;;;;;;;2.13;0.90;;;22.60;99.90;;;22.98;42.92;101579.81;4927106;28;107741;-49
2022/07/27 09:16:04;;;;;;;0.93;0.70;;;22.80;94.90;;;23.10;50.99;101578.06;4926157;28;96946;-49
2022/07/27 09:18:36;;;;;;;2.03;0.80;;;22.90;99.90;;;23.10;41.14;101578.06;4928042;28;96966;-44
2022/07/27 09:21:23;;;;;;;2.27;0.80;;;22.90;94.50;;;23.10;44.92;101572.69;4929888;28;98631;-48
2022/07/27 09:24:10;;;;;;;1.73;1.03;;;22.80;96.30;;;23.05;43.74;101583.78;4930488;28;101665;-46
2022/07/27 09:26:37;;;;;;;5.57;1.07;;;22.70;92.80;;;23.08;49.64;101569.25;4921092;28;96958;-48
2022/07/27 09:29:11;;;;;;;1.63;0.67;;;22.90;99.00;;;23.14;50.75;101590.31;4934536;28;96824;-47
2022/07/27 09:31:49;;;;;;;1.10;0.80;;;23.00;99.90;;;23.22;48.40;101585.25;4918040;28;97777;-45
2022/07/27 09:34:29;;;;;;;4.23;1.27;;;23.10;99.70;;;23.29;50.00;101589.22;4939560;28;97464;-44
2022/07/27 09:36:57;;;;;;;1.20;0.70;;;23.10;99.80;;;23.31;50.25;101586.41;4923588;28;97630;-52
2022/07/27 09:39:26;;;;;;;2.90;1.20;;;23.20;99.90;;;23.31;40.70;101584.56;4921972;28;97501;-45
2022/07/27 09:41:56;;;;;;;4.13;0.80;;;23.10;93.60;;;23.33;43.95;101585.31;4921653;28;98206;-45
2022/07/27 09:44:39;;;;;;;1.30;0.50;;;23.10;93.80;;;23.33;49.34;101579.94;4918666;28;97298;-46
2022/07/27 09:47:28;;;;;;;2.23;0.80;;;23.00;99.70;;;23.30;41.69;101577.47;4921400;28;96644;-47
2022/07/27 09:49:57;;;;;;;3.57;0.80;;;23.00;91.70;;;23.31;46.62;101584.56;4928936;28;103988;-43
2022/07/27 09:52:29;;;;;;;3.30;0.80;;;23.00;94.30;;;23.31;48.01;101571.09;4924913;28;97342;-44
2022/07/27 09:55:05;;;;;;;1.93;0.90;;;23.00;95.50;;;23.26;37.61;101578.66;4940655;28;97008;-43
2022/07/27 09:57:54;;;;;;;2.67;0.93;;;23.00;90.80;;;23.33;49.41;101585.31;4923921;28;96705;-46
2022/07/27 10:00:21;;;;;;;0.97;0.60;;;23.00;99.30;;;23.26;44.54;101578.66;4923726;28;96746;-47
2022/07/27 10:02:49;;;;;;;2.93;1.47;;;23.00;95.70;;;23.14;46.66;101574.16;4934578;28;97212;-44
2022/07/27 10:05:20;;;;;;;3.93;1.10;;;22.80;94.40;;;23.05;47.10;101581.09;4925535;28;96996;-44
2022/07/27 10:07:47;;;;;;;2.60;0.87;;;22.60;94.50;;;23.10;49.29;101578.06;4924824;28;96634;-43
2022/07/27 10:10:14;;;;;;;1.30;0.93;;;22.70;98.50;;;23.15;49.68;101586.69;4935776;28;97603;-46
2022/07/27 10:12:43;;;;;;;0.97;0.70;;;22.80;99.90;;;23.19;49.96;101582.78;4935642;28;96852;-45
2022/07/27 10:15:10;;;;;;;4.67;1.10;;;22.90;99.80;;;23.17;38.61;101573.09;4929930;28;99521;-49
2022/07/27 10:17:38;;;;;;;4.60;1.13;;;22.90;90.80;;;23.12;36.94;101581.50;4915693;28;97384;-44